Kyoto Maru — JD3149 — position and weather

sailwx.info

Track history (hours):
 
Tides and Currents Weather Stations Pressure Air Temp Water Temp Dewpoint Dewpoint Depression Visibility Wind Speed Wind Dir Waves Ship Positions

Kyoto Maru

Last reported at 2018-Feb-21 20:30 UTC. Time now 2018-Feb-21 20:59 UTC.
Position N 35°27' E 139°41'.

Length 34 m; draft 3.8 m.

Type: Tug. MMSI: 431002219.

Date/timePositionNaut miles runAvg speedWind from/ knotsBaromVisibWave heightAir tempDewpointWater temp
2018-Feb-21 20:30N 35°27' E 139°41'1 2.1
2018-Feb-21 20:00N 35°27' E 139°42'0 0.1
2018-Feb-21 19:30N 35°27' E 139°42'1 2.0
2018-Feb-21 19:00N 35°28' E 139°42'0 0.4
2018-Feb-21 18:30N 35°28' E 139°42'1 1.9
2018-Feb-21 18:01N 35°27' E 139°42'0 0.0
2018-Feb-21 17:30N 35°27' E 139°42'0 0.0
2018-Feb-21 17:00N 35°27' E 139°42'0 0.0
2018-Feb-21 16:30N 35°27' E 139°42'0 0.0
2018-Feb-21 16:00N 35°27' E 139°42'3 5.9
2018-Feb-21 15:30N 35°24' E 139°42'1 1.6
2018-Feb-21 15:00N 35°24' E 139°41'1 1.7
2018-Feb-21 14:30N 35°24' E 139°42'3 5.2
2018-Feb-21 14:00N 35°26' E 139°42'0 0.0
2018-Feb-21 13:31N 35°26' E 139°42'0 0.0
2018-Feb-21 13:00N 35°26' E 139°42'0 0.0
2018-Feb-21 12:30N 35°26' E 139°42'0 0.0
2018-Feb-21 12:00N 35°26' E 139°42'0 0.0
2018-Feb-21 11:30N 35°26' E 139°42'1 1.5
2018-Feb-21 11:00N 35°26' E 139°41'1 1.1
2018-Feb-21 10:30N 35°27' E 139°41'0 0.8
2018-Feb-21 10:00N 35°27' E 139°42'0 0.1
2018-Feb-21 09:30N 35°27' E 139°42'1 1.9
2018-Feb-21 09:00N 35°27' E 139°41'2 3.4
2018-Feb-21 08:30N 35°26' E 139°43'2 3.1
2018-Feb-21 08:00N 35°28' E 139°44'0 0.2
2018-Feb-21 07:30N 35°28' E 139°44'3 5.1
2018-Feb-21 07:00N 35°30' E 139°46'0 0.1
2018-Feb-21 06:30N 35°30' E 139°46'2 3.1
2018-Feb-21 05:59N 35°28' E 139°45'4 7.6
2018-Feb-21 05:30N 35°27' E 139°40'1 2.0
2018-Feb-21 05:00N 35°27' E 139°39'0 0.0
2018-Feb-21 04:30N 35°27' E 139°39'0 0.0
2018-Feb-21 04:01N 35°27' E 139°39'0 0.0
2018-Feb-21 03:30N 35°27' E 139°39'0 0.0
2018-Feb-21 03:00N 35°27' E 139°39'0 0.0
2018-Feb-21 02:30N 35°27' E 139°39'0 0.0
2018-Feb-21 02:00N 35°27' E 139°39'0 0.0
2018-Feb-21 01:30N 35°27' E 139°39'0 0.0
2018-Feb-21 01:00N 35°27' E 139°39'0 0.0
2018-Feb-21 00:30N 35°27' E 139°39'0 0.0
2018-Feb-21 00:00N 35°27' E 139°39'0 0.0
2018-Feb-20 23:30N 35°27' E 139°39'0 0.0
2018-Feb-20 23:00N 35°27' E 139°39'0 0.0
2018-Feb-20 22:30N 35°27' E 139°39'0 0.0
2018-Feb-20 22:00N 35°27' E 139°39'0 0.0
2018-Feb-20 21:30N 35°27' E 139°39'0 0.0
2018-Feb-20 21:00N 35°27' E 139°39'0 0.0
2018-Feb-20 20:31N 35°27' E 139°39'0 0.0
2018-Feb-20 20:00N 35°27' E 139°39'0 0.0
2018-Feb-20 19:30N 35°27' E 139°39'0 0.0
2018-Feb-20 19:00N 35°27' E 139°39'0 0.0
2018-Feb-20 18:30N 35°27' E 139°39'0 0.0
2018-Feb-20 18:00N 35°27' E 139°39'0 0.0
2018-Feb-20 17:30N 35°27' E 139°39'0 0.0
2018-Feb-20 17:00N 35°27' E 139°39'0 0.0
2018-Feb-20 16:30N 35°27' E 139°39'0 0.0
2018-Feb-20 16:00N 35°27' E 139°39'0 0.0
2018-Feb-20 15:30N 35°27' E 139°39'0 0.0
2018-Feb-20 15:01N 35°27' E 139°39'0 0.0
2018-Feb-20 14:30N 35°27' E 139°39'0 0.0
2018-Feb-20 14:00N 35°27' E 139°39'0 0.0
2018-Feb-20 13:31N 35°27' E 139°39'0 0.0
2018-Feb-20 13:00N 35°27' E 139°39'0 0.0
2018-Feb-20 12:31N 35°27' E 139°39'0 0.0
2018-Feb-20 12:00N 35°27' E 139°39'0 0.0
2018-Feb-20 11:30N 35°27' E 139°39'0 0.0
2018-Feb-20 11:00N 35°27' E 139°39'0 0.0
2018-Feb-20 10:30N 35°27' E 139°39'0 0.0
2018-Feb-20 10:01N 35°27' E 139°39'0 0.0
2018-Feb-20 09:30N 35°27' E 139°39'0 0.0
2018-Feb-20 09:00N 35°27' E 139°39'0 0.0
2018-Feb-20 08:30N 35°27' E 139°39'0 0.0
2018-Feb-20 08:00N 35°27' E 139°39'0 0.0
2018-Feb-20 07:30N 35°27' E 139°39'0 0.0
2018-Feb-20 07:00N 35°27' E 139°39'0 0.0
2018-Feb-20 06:30N 35°27' E 139°39'0 0.0
2018-Feb-20 06:00N 35°27' E 139°39'0 0.0
2018-Feb-20 05:30N 35°27' E 139°39'0 0.0
2018-Feb-20 05:00N 35°27' E 139°39'0 0.0
2018-Feb-20 04:30N 35°27' E 139°39'0 0.0
2018-Feb-20 04:00N 35°27' E 139°39'0 0.0
2018-Feb-20 03:30N 35°27' E 139°39'0 0.0
2018-Feb-20 03:00N 35°27' E 139°39'0 0.0
2018-Feb-20 02:30N 35°27' E 139°39'0 0.0
2018-Feb-20 02:00N 35°27' E 139°39'0 0.0
2018-Feb-20 01:30N 35°27' E 139°39'0 0.0
2018-Feb-20 01:00N 35°27' E 139°39'0 0.0
2018-Feb-20 00:30N 35°27' E 139°39'2 4.0
2018-Feb-20 00:00N 35°26' E 139°42'2 4.5
2018-Feb-19 23:30N 35°24' E 139°41'0 0.1
2018-Feb-19 23:00N 35°24' E 139°41'1 2.1
2018-Feb-19 22:30N 35°23' E 139°41'1 1.8
2018-Feb-19 22:00N 35°22' E 139°42'4 8.8
2018-Feb-19 21:30N 35°27' E 139°41'2 3.7
2018-Feb-19 21:00N 35°27' E 139°39'0 0.0
2018-Feb-19 20:30N 35°27' E 139°39'0 0.0
2018-Feb-19 20:00N 35°27' E 139°39'0 0.0
2018-Feb-19 19:30N 35°27' E 139°39'0 0.0
2018-Feb-19 19:00N 35°27' E 139°39'0 0.0
2018-Feb-19 18:30N 35°27' E 139°39'0 0.0
2018-Feb-19 18:00N 35°27' E 139°39'0 0.0
2018-Feb-19 17:30N 35°27' E 139°39'0 0.0
2018-Feb-19 17:00N 35°27' E 139°39'0 0.0
2018-Feb-19 16:30N 35°27' E 139°39'0 0.0
2018-Feb-19 16:00N 35°27' E 139°39'0 0.0
2018-Feb-19 15:30N 35°27' E 139°39'0 0.0
2018-Feb-19 15:00N 35°27' E 139°39'0 0.0
2018-Feb-19 14:30N 35°27' E 139°39'0 0.0
2018-Feb-19 14:00N 35°27' E 139°39'0 0.0
2018-Feb-19 13:30N 35°27' E 139°39'0 0.0
2018-Feb-19 13:00N 35°27' E 139°39'0 0.0
2018-Feb-19 12:30N 35°27' E 139°39'0 0.0
2018-Feb-19 12:00N 35°27' E 139°39'0 0.0
2018-Feb-19 11:30N 35°27' E 139°39'0 0.0
2018-Feb-19 11:00N 35°27' E 139°39'0 0.0
2018-Feb-19 10:30N 35°27' E 139°39'0 0.0
2018-Feb-19 10:01N 35°27' E 139°39'0 0.0
2018-Feb-19 09:30N 35°27' E 139°39'0 0.0
2018-Feb-19 09:00N 35°27' E 139°39'0 0.0
2018-Feb-19 08:30N 35°27' E 139°39'0 0.0
2018-Feb-19 08:00N 35°27' E 139°39'0 0.0
2018-Feb-19 07:30N 35°27' E 139°39'0 0.0
2018-Feb-19 07:00N 35°27' E 139°39'0 0.0
2018-Feb-19 06:30N 35°27' E 139°39'0 0.0
2018-Feb-19 06:00N 35°27' E 139°39'0 0.0
2018-Feb-19 05:30N 35°27' E 139°39'0 0.0
2018-Feb-19 05:00N 35°27' E 139°39'0 0.0
2018-Feb-19 04:30N 35°27' E 139°39'0 0.0
2018-Feb-19 04:00N 35°27' E 139°39'0 0.0
2018-Feb-19 03:30N 35°27' E 139°39'0 0.0
2018-Feb-19 03:00N 35°27' E 139°39'0 0.0
2018-Feb-19 02:30N 35°27' E 139°39'0 0.0
2018-Feb-19 02:01N 35°27' E 139°39'2 3.1
2018-Feb-19 01:30N 35°27' E 139°41'3 6.0
2018-Feb-19 01:00N 35°24' E 139°40'1 2.1
2018-Feb-19 00:30N 35°25' E 139°39'0 0.1
2018-Feb-19 00:00N 35°25' E 139°39'1 1.6
2018-Feb-18 23:30N 35°24' E 139°40'2 3.4
2018-Feb-18 23:00N 35°23' E 139°41'0 0.7
2018-Feb-18 22:30N 35°23' E 139°41'4 7.8
2018-Feb-18 22:00N 35°27' E 139°41'1 2.4
2018-Feb-18 21:30N 35°27' E 139°39'0 0.0
2018-Feb-18 21:00N 35°27' E 139°39'0 0.0
2018-Feb-18 20:30N 35°27' E 139°39'0 0.0
2018-Feb-18 20:00N 35°27' E 139°39'0 0.0
2018-Feb-18 19:30N 35°27' E 139°39'0 0.0
2018-Feb-18 19:00N 35°27' E 139°39'0 0.0
2018-Feb-18 18:30N 35°27' E 139°39'0 0.0
2018-Feb-18 18:00N 35°27' E 139°39'0 0.0
2018-Feb-18 17:30N 35°27' E 139°39'0 0.0
2018-Feb-18 17:00N 35°27' E 139°39'0 0.0
2018-Feb-18 16:30N 35°27' E 139°39'0 0.0
2018-Feb-18 16:00N 35°27' E 139°39'0 0.0
2018-Feb-18 15:30N 35°27' E 139°39'0 0.0
2018-Feb-18 15:00N 35°27' E 139°39'0 0.0
2018-Feb-18 14:30N 35°27' E 139°39'0 0.0
2018-Feb-18 14:00N 35°27' E 139°39'0 0.0
2018-Feb-18 13:30N 35°27' E 139°39'0 0.0
2018-Feb-18 13:00N 35°27' E 139°39'0 0.0
2018-Feb-18 12:30N 35°27' E 139°39'0 0.0
2018-Feb-18 12:00N 35°27' E 139°39'0 0.0
2018-Feb-18 11:30N 35°27' E 139°39'0 0.0
2018-Feb-18 11:00N 35°27' E 139°39'0 0.0
2018-Feb-18 10:30N 35°27' E 139°39'0 0.0
2018-Feb-18 10:00N 35°27' E 139°39'0 0.0
2018-Feb-18 09:30N 35°27' E 139°39'0 0.0
2018-Feb-18 09:00N 35°27' E 139°39'0 0.0
2018-Feb-18 08:30N 35°27' E 139°39'0 0.0
2018-Feb-18 08:00N 35°27' E 139°39'0 0.0
2018-Feb-18 07:30N 35°27' E 139°39'0 0.0
2018-Feb-18 07:00N 35°27' E 139°39'0 0.0
2018-Feb-18 06:30N 35°27' E 139°39'0 0.0
2018-Feb-18 06:00N 35°27' E 139°39'0 0.0
2018-Feb-18 05:30N 35°27' E 139°39'0 0.0
2018-Feb-18 05:00N 35°27' E 139°39'0 0.0
2018-Feb-18 04:30N 35°27' E 139°39'0 0.0
2018-Feb-18 04:00N 35°27' E 139°39'0 0.0
2018-Feb-18 03:30N 35°27' E 139°39'0 0.0
2018-Feb-18 03:00N 35°27' E 139°39'0 0.0
2018-Feb-18 02:30N 35°27' E 139°39'0 0.0
2018-Feb-18 02:00N 35°27' E 139°39'0 0.0
2018-Feb-18 01:30N 35°27' E 139°39'0 0.0
2018-Feb-18 01:00N 35°27' E 139°39'0 0.0
2018-Feb-18 00:30N 35°27' E 139°39'0 0.0
2018-Feb-18 00:00N 35°27' E 139°39'0 0.0
2018-Feb-17 23:30N 35°27' E 139°39'0 0.0
2018-Feb-17 23:00N 35°27' E 139°39'0 0.0
2018-Feb-17 22:30N 35°27' E 139°39'0 0.0
2018-Feb-17 22:00N 35°27' E 139°39'0 0.0
2018-Feb-17 21:30N 35°27' E 139°39'0 0.0
2018-Feb-17 21:00N 35°27' E 139°39'0 0.0
2018-Feb-17 20:30N 35°27' E 139°39'0 0.0
2018-Feb-17 20:00N 35°27' E 139°39'0 0.0
2018-Feb-17 19:30N 35°27' E 139°39'0 0.0
2018-Feb-17 19:00N 35°27' E 139°39'0 0.0
2018-Feb-17 18:30N 35°27' E 139°39'0 0.0
2018-Feb-17 18:00N 35°27' E 139°39'0 0.0
2018-Feb-17 17:30N 35°27' E 139°39'0 0.0
2018-Feb-17 17:00N 35°27' E 139°39'0 0.0
2018-Feb-17 16:30N 35°27' E 139°39'0 0.0
2018-Feb-17 16:00N 35°27' E 139°39'0 0.0
2018-Feb-17 15:30N 35°27' E 139°39'0 0.0
2018-Feb-17 15:00N 35°27' E 139°39'0 0.0
2018-Feb-17 14:30N 35°27' E 139°39'0 0.0
2018-Feb-17 14:00N 35°27' E 139°39'0 0.0
2018-Feb-17 13:31N 35°27' E 139°39'0 0.0
2018-Feb-17 13:00N 35°27' E 139°39'0 0.0
2018-Feb-17 12:30N 35°27' E 139°39'0 0.0
2018-Feb-17 12:00N 35°27' E 139°39'0 0.0
2018-Feb-17 11:30N 35°27' E 139°39'0 0.0
2018-Feb-17 11:00N 35°27' E 139°39'0 0.0
2018-Feb-17 10:30N 35°27' E 139°39'0 0.0
2018-Feb-17 10:00N 35°27' E 139°39'0 0.0
2018-Feb-17 09:31N 35°27' E 139°39'0 0.0
2018-Feb-17 09:00N 35°27' E 139°39'0 0.0
2018-Feb-17 08:30N 35°27' E 139°39'0 0.0
2018-Feb-17 08:00N 35°27' E 139°39'0 0.0
2018-Feb-17 07:30N 35°27' E 139°39'1 1.1
2018-Feb-17 07:00N 35°27' E 139°39'1 1.1
2018-Feb-17 06:30N 35°27' E 139°39'0 0.0
2018-Feb-17 06:01N 35°27' E 139°39'1 2.5
2018-Feb-17 05:30N 35°27' E 139°41'4 8.9
2018-Feb-17 05:00N 35°28' E 139°46'1 1.7
2018-Feb-17 04:30N 35°29' E 139°47'0 0.2
2018-Feb-17 04:00N 35°29' E 139°47'2 4.5
2018-Feb-17 03:30N 35°27' E 139°47'1 1.0
2018-Feb-17 03:00N 35°27' E 139°46'2 4.2
2018-Feb-17 02:30N 35°27' E 139°43'3 6.9
2018-Feb-17 02:00N 35°27' E 139°39'0 0.0
2018-Feb-17 01:30N 35°27' E 139°39'0 0.0
2018-Feb-17 01:00N 35°27' E 139°39'0 0.0
2018-Feb-17 00:30N 35°27' E 139°39'0 0.0
2018-Feb-17 00:00N 35°27' E 139°39'0 0.6
2018-Feb-16 23:30N 35°27' E 139°39'4 7.3
2018-Feb-16 23:00N 35°29' E 139°43'0 0.9
2018-Feb-16 22:30N 35°29' E 139°42'1 1.9
2018-Feb-16 22:00N 35°28' E 139°42'0 0.9
2018-Feb-16 21:30N 35°28' E 139°42'0 0.1
2018-Feb-16 21:01N 35°28' E 139°42'2 4.7
2018-Feb-16 20:31N 35°27' E 139°39'0 0.0
2018-Feb-16 20:00N 35°27' E 139°39'0 0.0
2018-Feb-16 19:30N 35°27' E 139°39'0 0.0
2018-Feb-16 19:00N 35°27' E 139°39'0 0.0
2018-Feb-16 18:30N 35°27' E 139°39'0 0.0
2018-Feb-16 18:00N 35°27' E 139°39'0 0.0
2018-Feb-16 17:30N 35°27' E 139°39'0 0.0
2018-Feb-16 17:00N 35°27' E 139°39'0 0.0
2018-Feb-16 16:30N 35°27' E 139°39'0 0.0
2018-Feb-16 16:00N 35°27' E 139°39'0 0.0
2018-Feb-16 15:30N 35°27' E 139°39'0 0.0
2018-Feb-16 15:00N 35°27' E 139°39'0 0.0
2018-Feb-16 14:30N 35°27' E 139°39'0 0.0
2018-Feb-16 14:00N 35°27' E 139°39'0 0.0
2018-Feb-16 13:30N 35°27' E 139°39'0 0.0
2018-Feb-16 13:00N 35°27' E 139°39'0 0.0
2018-Feb-16 12:30N 35°27' E 139°39'0 0.0
2018-Feb-16 12:00N 35°27' E 139°39'0 0.0
2018-Feb-16 11:30N 35°27' E 139°39'0 0.0
2018-Feb-16 11:00N 35°27' E 139°39'0 0.0
2018-Feb-16 10:30N 35°27' E 139°39'3 6.1
2018-Feb-16 10:00N 35°27' E 139°43'2 4.1
2018-Feb-16 09:30N 35°29' E 139°44'0 0.0
2018-Feb-16 09:00N 35°29' E 139°44'1 1.1
2018-Feb-16 08:30N 35°28' E 139°45'2 3.3
2018-Feb-16 08:00N 35°27' E 139°45'3 7.0
2018-Feb-16 07:30N 35°27' E 139°41'1 3.0
2018-Feb-16 07:00N 35°27' E 139°39'0 0.0
2018-Feb-16 06:31N 35°27' E 139°39'0 0.0
2018-Feb-16 06:00N 35°27' E 139°39'0 0.0
2018-Feb-16 05:30N 35°27' E 139°39'0 0.0
2018-Feb-16 05:00N 35°27' E 139°39'0 0.0
2018-Feb-16 04:30N 35°27' E 139°39'0 0.0
2018-Feb-16 04:00N 35°27' E 139°39'0 0.0
2018-Feb-16 03:30N 35°27' E 139°39'0 0.0
2018-Feb-16 03:00N 35°27' E 139°39'0 0.0
2018-Feb-16 02:30N 35°27' E 139°39'0 0.0
2018-Feb-16 02:00N 35°27' E 139°39'0 0.0
2018-Feb-16 01:30N 35°27' E 139°39'0 0.0
2018-Feb-16 01:00N 35°27' E 139°39'0 0.0
2018-Feb-16 00:30N 35°27' E 139°39'0 0.0
2018-Feb-16 00:00N 35°27' E 139°39'0 0.0
2018-Feb-15 23:30N 35°27' E 139°39'0 0.0
2018-Feb-15 23:00N 35°27' E 139°39'0 0.0
2018-Feb-15 22:30N 35°27' E 139°39'0 0.0
2018-Feb-15 22:00N 35°27' E 139°39'0 0.0
2018-Feb-15 21:30N 35°27' E 139°39'0 0.0
2018-Feb-15 21:00N 35°27' E 139°39'0 0.0
2018-Feb-15 20:30N 35°27' E 139°39'0 0.0
2018-Feb-15 20:00N 35°27' E 139°39'0 0.0
2018-Feb-15 19:30N 35°27' E 139°39'0 0.0
2018-Feb-15 19:00N 35°27' E 139°39'0 0.0
2018-Feb-15 18:30N 35°27' E 139°39'0 0.0
2018-Feb-15 18:00N 35°27' E 139°39'0 0.0
2018-Feb-15 17:30N 35°27' E 139°39'0 0.0
2018-Feb-15 17:00N 35°27' E 139°39'0 0.0
2018-Feb-15 16:30N 35°27' E 139°39'0 0.0
2018-Feb-15 16:00N 35°27' E 139°39'0 0.0
2018-Feb-15 15:30N 35°27' E 139°39'0 0.0
2018-Feb-15 15:00N 35°27' E 139°39'0 0.0
2018-Feb-15 14:30N 35°27' E 139°39'0 0.0
2018-Feb-15 14:00N 35°27' E 139°39'0 0.0
2018-Feb-15 13:30N 35°27' E 139°39'0 0.0
2018-Feb-15 13:00N 35°27' E 139°39'0 0.0
2018-Feb-15 12:30N 35°27' E 139°39'0 0.0
2018-Feb-15 12:00N 35°27' E 139°39'0 0.0
2018-Feb-15 11:30N 35°27' E 139°39'0 0.0
2018-Feb-15 11:00N 35°27' E 139°39'0 0.0
2018-Feb-15 10:30N 35°27' E 139°39'0 0.0
2018-Feb-15 10:01N 35°27' E 139°39'0 0.0
2018-Feb-15 09:30N 35°27' E 139°39'0 0.0
2018-Feb-15 09:00N 35°27' E 139°39'0 0.0
2018-Feb-15 08:30N 35°27' E 139°39'0 0.0
2018-Feb-15 08:00N 35°27' E 139°39'0 0.0
2018-Feb-15 07:31N 35°27' E 139°39'0 0.0
2018-Feb-15 07:00N 35°27' E 139°39'0 0.0
2018-Feb-15 06:30N 35°27' E 139°39'0 0.0
2018-Feb-15 06:00N 35°27' E 139°39'0 0.0
2018-Feb-15 05:30N 35°27' E 139°39'0 0.0
2018-Feb-15 05:00N 35°27' E 139°39'0 0.0
2018-Feb-15 04:30N 35°27' E 139°39'0 0.0
2018-Feb-15 04:00N 35°27' E 139°39'0 0.0
2018-Feb-15 03:30N 35°27' E 139°39'0 0.0
2018-Feb-15 03:00N 35°27' E 139°39'0 0.0
2018-Feb-15 02:30N 35°27' E 139°39'0 0.0
2018-Feb-15 02:00N 35°27' E 139°39'0 0.0
2018-Feb-15 01:30N 35°27' E 139°39'0 0.0
2018-Feb-15 01:00N 35°27' E 139°39'0 0.0
2018-Feb-15 00:30N 35°27' E 139°39'0 0.0
2018-Feb-15 00:00N 35°27' E 139°39'0 0.0
2018-Feb-14 23:30N 35°27' E 139°39'4 7.8
2018-Feb-14 23:00N 35°29' E 139°43'0 0.5
2018-Feb-14 22:30N 35°29' E 139°43'1 2.3
2018-Feb-14 22:01N 35°28' E 139°42'1 2.4
2018-Feb-14 21:30N 35°27' E 139°43'0 0.9
2018-Feb-14 21:00N 35°27' E 139°44'0 0.5
2018-Feb-14 20:30N 35°27' E 139°43'3 5.1
2018-Feb-14 20:01N 35°27' E 139°40'1 1.9
2018-Feb-14 19:30N 35°27' E 139°39'0 0.0
2018-Feb-14 19:01N 35°27' E 139°39'0 0.0
2018-Feb-14 18:31N 35°27' E 139°39'0 0.0
2018-Feb-14 18:00N 35°27' E 139°39'0 0.0
2018-Feb-14 17:30N 35°27' E 139°39'0 0.0
2018-Feb-14 17:00N 35°27' E 139°39'0 0.0
2018-Feb-14 16:30N 35°27' E 139°39'0 0.0
2018-Feb-14 16:00N 35°27' E 139°39'0 0.0
2018-Feb-14 15:30N 35°27' E 139°39'0 0.0
2018-Feb-14 15:00N 35°27' E 139°39'0 0.0
2018-Feb-14 14:30N 35°27' E 139°39'0 0.0
2018-Feb-14 14:00N 35°27' E 139°39'0 0.0
2018-Feb-14 13:30N 35°27' E 139°39'1 2.9
2018-Feb-14 13:00N 35°27' E 139°41'3 5.7
2018-Feb-14 12:30N 35°24' E 139°41'0 0.5
2018-Feb-14 12:00N 35°24' E 139°41'2 5.0
2018-Feb-14 11:30N 35°25' E 139°43'1 2.3
2018-Feb-14 11:01N 35°26' E 139°44'0 0.5
2018-Feb-14 10:30N 35°26' E 139°44'1 2.3
2018-Feb-14 10:00N 35°25' E 139°43'2 3.4
2018-Feb-14 09:30N 35°24' E 139°41'1 1.4
2018-Feb-14 09:00N 35°23' E 139°41'4 7.4
2018-Feb-14 08:31N 35°27' E 139°44'1 2.3
2018-Feb-14 08:01N 35°27' E 139°42'0 0.0
2018-Feb-14 07:30N 35°27' E 139°42'0 0.0
2018-Feb-14 07:00N 35°27' E 139°42'0 0.1
2018-Feb-14 06:30N 35°27' E 139°42'0 0.0
2018-Feb-14 06:01N 35°27' E 139°42'0 0.0
2018-Feb-14 05:30N 35°27' E 139°42'0 0.0
2018-Feb-14 05:00N 35°27' E 139°42'0 0.0
2018-Feb-14 04:30N 35°27' E 139°42'0 0.0
2018-Feb-14 04:00N 35°27' E 139°42'0 0.0
2018-Feb-14 03:30N 35°27' E 139°42'3 5.0
2018-Feb-14 03:00N 35°28' E 139°45'2 3.5
2018-Feb-14 02:30N 35°29' E 139°47'0 0.0
2018-Feb-14 02:00N 35°29' E 139°47'0 0.2
2018-Feb-14 01:30N 35°29' E 139°47'1 1.7
2018-Feb-14 01:01N 35°28' E 139°47'2 4.6
2018-Feb-14 00:31N 35°26' E 139°46'2 3.9
2018-Feb-14 00:00N 35°26' E 139°44'4 7.6
2018-Feb-13 23:30N 35°27' E 139°40'0 0.3
2018-Feb-13 23:00N 35°27' E 139°39'0 0.0
2018-Feb-13 22:30N 35°27' E 139°39'1 2.9
2018-Feb-13 22:00N 35°27' E 139°41'1 3.0
2018-Feb-13 21:30N 35°26' E 139°42'1 1.3
2018-Feb-13 21:00N 35°25' E 139°42'3 5.9
2018-Feb-13 20:30N 35°27' E 139°39'0 0.0
2018-Feb-13 20:00N 35°27' E 139°39'0 0.0
2018-Feb-13 19:30N 35°27' E 139°39'0 0.0
2018-Feb-13 19:00N 35°27' E 139°39'0 0.0
2018-Feb-13 18:30N 35°27' E 139°39'0 0.0
2018-Feb-13 18:00N 35°27' E 139°39'0 0.0
2018-Feb-13 17:30N 35°27' E 139°39'0 0.0
2018-Feb-13 17:00N 35°27' E 139°39'0 0.0
2018-Feb-13 16:30N 35°27' E 139°39'0 0.0
2018-Feb-13 16:00N 35°27' E 139°39'0 0.0
2018-Feb-13 15:30N 35°27' E 139°39'0 0.0
2018-Feb-13 15:00N 35°27' E 139°39'0 0.0
2018-Feb-13 14:30N 35°27' E 139°39'0 0.0
2018-Feb-13 14:00N 35°27' E 139°39'0 0.0
2018-Feb-13 13:30N 35°27' E 139°39'0 0.0
2018-Feb-13 13:00N 35°27' E 139°39'0 0.0
2018-Feb-13 12:30N 35°27' E 139°39'0 0.0
2018-Feb-13 12:00N 35°27' E 139°39'0 0.0
2018-Feb-13 11:30N 35°27' E 139°39'0 0.0
2018-Feb-13 11:00N 35°27' E 139°39'0 0.0
2018-Feb-13 10:30N 35°27' E 139°39'0 0.0
2018-Feb-13 10:00N 35°27' E 139°39'0 0.0
2018-Feb-13 09:30N 35°27' E 139°39'0 0.0
2018-Feb-13 09:00N 35°27' E 139°39'0 0.0
2018-Feb-13 08:30N 35°27' E 139°39'0 0.0
2018-Feb-13 08:00N 35°27' E 139°39'0 0.0
2018-Feb-13 07:30N 35°27' E 139°39'0 0.0
2018-Feb-13 07:00N 35°27' E 139°39'0 0.0
2018-Feb-13 06:30N 35°27' E 139°39'0 0.0
2018-Feb-13 06:00N 35°27' E 139°39'0 0.0
2018-Feb-13 05:30N 35°27' E 139°39'0 0.0
2018-Feb-13 05:00N 35°27' E 139°39'0 0.0
2018-Feb-13 04:30N 35°27' E 139°39'0 0.0
2018-Feb-13 04:00N 35°27' E 139°39'0 0.0
2018-Feb-13 03:30N 35°27' E 139°39'0 0.0
2018-Feb-13 03:00N 35°27' E 139°39'0 0.0
2018-Feb-13 02:30N 35°27' E 139°39'0 0.0
2018-Feb-13 02:00N 35°27' E 139°39'0 0.0
2018-Feb-13 01:30N 35°27' E 139°39'1 2.9
2018-Feb-13 01:00N 35°27' E 139°41'1 1.6
2018-Feb-13 00:30N 35°27' E 139°42'1 3.0
2018-Feb-13 00:00N 35°26' E 139°43'3 6.2
2018-Feb-12 23:30N 35°27' E 139°39'0 0.0
2018-Feb-12 23:00N 35°27' E 139°39'0 0.0
2018-Feb-12 22:30N 35°27' E 139°39'0 0.0
2018-Feb-12 22:00N 35°27' E 139°39'0 0.0
2018-Feb-12 21:30N 35°27' E 139°39'0 0.0
2018-Feb-12 21:00N 35°27' E 139°39'0 0.0
2018-Feb-12 20:30N 35°27' E 139°39'0 0.0
2018-Feb-12 20:01N 35°27' E 139°39'0 0.0
2018-Feb-12 19:30N 35°27' E 139°39'0 0.0
2018-Feb-12 19:00N 35°27' E 139°39'0 0.0
2018-Feb-12 18:30N 35°27' E 139°39'0 0.0
2018-Feb-12 18:00N 35°27' E 139°39'0 0.0
2018-Feb-12 17:30N 35°27' E 139°39'0 0.0
2018-Feb-12 17:00N 35°27' E 139°39'0 0.0
2018-Feb-12 16:30N 35°27' E 139°39'0 0.0
2018-Feb-12 16:00N 35°27' E 139°39'0 0.0
2018-Feb-12 15:30N 35°27' E 139°39'0 0.0
2018-Feb-12 15:00N 35°27' E 139°39'0 0.0
2018-Feb-12 14:30N 35°27' E 139°39'0 0.0
2018-Feb-12 14:00N 35°27' E 139°39'0 0.0
2018-Feb-12 13:30N 35°27' E 139°39'0 0.0
2018-Feb-12 13:00N 35°27' E 139°39'0 0.0
2018-Feb-12 12:30N 35°27' E 139°39'0 0.0
2018-Feb-12 12:00N 35°27' E 139°39'0 0.0
2018-Feb-12 11:30N 35°27' E 139°39'0 0.0
2018-Feb-12 11:00N 35°27' E 139°39'0 0.0
2018-Feb-12 10:30N 35°27' E 139°39'0 0.0
2018-Feb-12 10:00N 35°27' E 139°39'0 0.0
2018-Feb-12 09:31N 35°27' E 139°39'0 0.0
2018-Feb-12 09:00N 35°27' E 139°39'0 0.0
2018-Feb-12 08:30N 35°27' E 139°39'0 0.0
2018-Feb-12 08:00N 35°27' E 139°39'0 0.0
2018-Feb-12 07:30N 35°27' E 139°39'0 0.0
2018-Feb-12 07:00N 35°27' E 139°39'0 0.0
2018-Feb-12 06:30N 35°27' E 139°39'0 0.0
2018-Feb-12 06:00N 35°27' E 139°39'0 0.0
2018-Feb-12 05:30N 35°27' E 139°39'0 0.0
2018-Feb-12 05:00N 35°27' E 139°39'0 0.0
2018-Feb-12 04:30N 35°27' E 139°39'0 0.0
2018-Feb-12 04:00N 35°27' E 139°39'0 0.0
2018-Feb-12 03:30N 35°27' E 139°39'0 0.0
2018-Feb-12 03:00N 35°27' E 139°39'0 0.0
2018-Feb-12 02:30N 35°27' E 139°39'0 0.0
2018-Feb-12 02:00N 35°27' E 139°39'0 0.0
2018-Feb-12 01:30N 35°27' E 139°39'0 0.0
2018-Feb-12 01:00N 35°27' E 139°39'0 0.0
2018-Feb-12 00:31N 35°27' E 139°39'0 0.0
2018-Feb-12 00:00N 35°27' E 139°39'2 3.1
2018-Feb-11 23:30N 35°27' E 139°41'0 0.3
2018-Feb-11 23:00N 35°27' E 139°41'2 4.5
2018-Feb-11 22:30N 35°26' E 139°44'2 3.3
2018-Feb-11 22:00N 35°27' E 139°42'0 0.0
2018-Feb-11 21:30N 35°27' E 139°42'1 1.5
2018-Feb-11 21:00N 35°28' E 139°42'0 0.1
2018-Feb-11 20:30N 35°28' E 139°42'  
Track history (hours):
 
Tides and Currents Weather Stations Pressure Air Temp Water Temp Dewpoint Dewpoint Depression Visibility Wind Speed Wind Dir Waves Ship Positions

Kyoto Maru

Last reported at 2018-Feb-21 20:30 UTC. Time now 2018-Feb-21 20:59 UTC.
Position N 35°27' E 139°41'.

Length 34 m; draft 3.8 m.

Type: Tug. MMSI: 431002219.

Date/timePositionNaut miles runAvg speedWind from/ knotsBaromVisibWave heightAir tempDewpointWater temp
2018-Feb-21 20:30N 35°27' E 139°41'1 2.1
2018-Feb-21 20:00N 35°27' E 139°42'0 0.1
2018-Feb-21 19:30N 35°27' E 139°42'1 2.0
2018-Feb-21 19:00N 35°28' E 139°42'0 0.4
2018-Feb-21 18:30N 35°28' E 139°42'1 1.9
2018-Feb-21 18:01N 35°27' E 139°42'0 0.0
2018-Feb-21 17:30N 35°27' E 139°42'0 0.0
2018-Feb-21 17:00N 35°27' E 139°42'0 0.0
2018-Feb-21 16:30N 35°27' E 139°42'0 0.0
2018-Feb-21 16:00N 35°27' E 139°42'3 5.9
2018-Feb-21 15:30N 35°24' E 139°42'1 1.6
2018-Feb-21 15:00N 35°24' E 139°41'1 1.7
2018-Feb-21 14:30N 35°24' E 139°42'3 5.2
2018-Feb-21 14:00N 35°26' E 139°42'0 0.0
2018-Feb-21 13:31N 35°26' E 139°42'0 0.0
2018-Feb-21 13:00N 35°26' E 139°42'0 0.0
2018-Feb-21 12:30N 35°26' E 139°42'0 0.0
2018-Feb-21 12:00N 35°26' E 139°42'0 0.0
2018-Feb-21 11:30N 35°26' E 139°42'1 1.5
2018-Feb-21 11:00N 35°26' E 139°41'1 1.1
2018-Feb-21 10:30N 35°27' E 139°41'0 0.8
2018-Feb-21 10:00N 35°27' E 139°42'0 0.1
2018-Feb-21 09:30N 35°27' E 139°42'1 1.9
2018-Feb-21 09:00N 35°27' E 139°41'2 3.4
2018-Feb-21 08:30N 35°26' E 139°43'2 3.1
2018-Feb-21 08:00N 35°28' E 139°44'0 0.2
2018-Feb-21 07:30N 35°28' E 139°44'3 5.1
2018-Feb-21 07:00N 35°30' E 139°46'0 0.1
2018-Feb-21 06:30N 35°30' E 139°46'2 3.1
2018-Feb-21 05:59N 35°28' E 139°45'4 7.6
2018-Feb-21 05:30N 35°27' E 139°40'1 2.0
2018-Feb-21 05:00N 35°27' E 139°39'0 0.0
2018-Feb-21 04:30N 35°27' E 139°39'0 0.0
2018-Feb-21 04:01N 35°27' E 139°39'0 0.0
2018-Feb-21 03:30N 35°27' E 139°39'0 0.0
2018-Feb-21 03:00N 35°27' E 139°39'0 0.0
2018-Feb-21 02:30N 35°27' E 139°39'0 0.0
2018-Feb-21 02:00N 35°27' E 139°39'0 0.0
2018-Feb-21 01:30N 35°27' E 139°39'0 0.0
2018-Feb-21 01:00N 35°27' E 139°39'0 0.0
2018-Feb-21 00:30N 35°27' E 139°39'0 0.0
2018-Feb-21 00:00N 35°27' E 139°39'0 0.0
2018-Feb-20 23:30N 35°27' E 139°39'0 0.0
2018-Feb-20 23:00N 35°27' E 139°39'0 0.0
2018-Feb-20 22:30N 35°27' E 139°39'0 0.0
2018-Feb-20 22:00N 35°27' E 139°39'0 0.0
2018-Feb-20 21:30N 35°27' E 139°39'0 0.0
2018-Feb-20 21:00N 35°27' E 139°39'0 0.0
2018-Feb-20 20:31N 35°27' E 139°39'0 0.0
2018-Feb-20 20:00N 35°27' E 139°39'0 0.0
2018-Feb-20 19:30N 35°27' E 139°39'0 0.0
2018-Feb-20 19:00N 35°27' E 139°39'0 0.0
2018-Feb-20 18:30N 35°27' E 139°39'0 0.0
2018-Feb-20 18:00N 35°27' E 139°39'0 0.0
2018-Feb-20 17:30N 35°27' E 139°39'0 0.0
2018-Feb-20 17:00N 35°27' E 139°39'0 0.0
2018-Feb-20 16:30N 35°27' E 139°39'0 0.0
2018-Feb-20 16:00N 35°27' E 139°39'0 0.0
2018-Feb-20 15:30N 35°27' E 139°39'0 0.0
2018-Feb-20 15:01N 35°27' E 139°39'0 0.0
2018-Feb-20 14:30N 35°27' E 139°39'0 0.0
2018-Feb-20 14:00N 35°27' E 139°39'0 0.0
2018-Feb-20 13:31N 35°27' E 139°39'0 0.0
2018-Feb-20 13:00N 35°27' E 139°39'0 0.0
2018-Feb-20 12:31N 35°27' E 139°39'0 0.0
2018-Feb-20 12:00N 35°27' E 139°39'0 0.0
2018-Feb-20 11:30N 35°27' E 139°39'0 0.0
2018-Feb-20 11:00N 35°27' E 139°39'0 0.0
2018-Feb-20 10:30N 35°27' E 139°39'0 0.0
2018-Feb-20 10:01N 35°27' E 139°39'0 0.0
2018-Feb-20 09:30N 35°27' E 139°39'0 0.0
2018-Feb-20 09:00N 35°27' E 139°39'0 0.0
2018-Feb-20 08:30N 35°27' E 139°39'0 0.0
2018-Feb-20 08:00N 35°27' E 139°39'0 0.0
2018-Feb-20 07:30N 35°27' E 139°39'0 0.0
2018-Feb-20 07:00N 35°27' E 139°39'0 0.0
2018-Feb-20 06:30N 35°27' E 139°39'0 0.0
2018-Feb-20 06:00N 35°27' E 139°39'0 0.0
2018-Feb-20 05:30N 35°27' E 139°39'0 0.0
2018-Feb-20 05:00N 35°27' E 139°39'0 0.0
2018-Feb-20 04:30N 35°27' E 139°39'0 0.0
2018-Feb-20 04:00N 35°27' E 139°39'0 0.0
2018-Feb-20 03:30N 35°27' E 139°39'0 0.0
2018-Feb-20 03:00N 35°27' E 139°39'0 0.0
2018-Feb-20 02:30N 35°27' E 139°39'0 0.0
2018-Feb-20 02:00N 35°27' E 139°39'0 0.0
2018-Feb-20 01:30N 35°27' E 139°39'0 0.0
2018-Feb-20 01:00N 35°27' E 139°39'0 0.0
2018-Feb-20 00:30N 35°27' E 139°39'2 4.0
2018-Feb-20 00:00N 35°26' E 139°42'2 4.5
2018-Feb-19 23:30N 35°24' E 139°41'0 0.1
2018-Feb-19 23:00N 35°24' E 139°41'1 2.1
2018-Feb-19 22:30N 35°23' E 139°41'1 1.8
2018-Feb-19 22:00N 35°22' E 139°42'4 8.8
2018-Feb-19 21:30N 35°27' E 139°41'2 3.7
2018-Feb-19 21:00N 35°27' E 139°39'0 0.0
2018-Feb-19 20:30N 35°27' E 139°39'0 0.0
2018-Feb-19 20:00N 35°27' E 139°39'0 0.0
2018-Feb-19 19:30N 35°27' E 139°39'0 0.0
2018-Feb-19 19:00N 35°27' E 139°39'0 0.0
2018-Feb-19 18:30N 35°27' E 139°39'0 0.0
2018-Feb-19 18:00N 35°27' E 139°39'0 0.0
2018-Feb-19 17:30N 35°27' E 139°39'0 0.0
2018-Feb-19 17:00N 35°27' E 139°39'0 0.0
2018-Feb-19 16:30N 35°27' E 139°39'0 0.0
2018-Feb-19 16:00N 35°27' E 139°39'0 0.0
2018-Feb-19 15:30N 35°27' E 139°39'0 0.0
2018-Feb-19 15:00N 35°27' E 139°39'0 0.0
2018-Feb-19 14:30N 35°27' E 139°39'0 0.0
2018-Feb-19 14:00N 35°27' E 139°39'0 0.0
2018-Feb-19 13:30N 35°27' E 139°39'0 0.0
2018-Feb-19 13:00N 35°27' E 139°39'0 0.0
2018-Feb-19 12:30N 35°27' E 139°39'0 0.0
2018-Feb-19 12:00N 35°27' E 139°39'0 0.0
2018-Feb-19 11:30N 35°27' E 139°39'0 0.0
2018-Feb-19 11:00N 35°27' E 139°39'0 0.0
2018-Feb-19 10:30N 35°27' E 139°39'0 0.0
2018-Feb-19 10:01N 35°27' E 139°39'0 0.0
2018-Feb-19 09:30N 35°27' E 139°39'0 0.0
2018-Feb-19 09:00N 35°27' E 139°39'0 0.0
2018-Feb-19 08:30N 35°27' E 139°39'0 0.0
2018-Feb-19 08:00N 35°27' E 139°39'0 0.0
2018-Feb-19 07:30N 35°27' E 139°39'0 0.0
2018-Feb-19 07:00N 35°27' E 139°39'0 0.0
2018-Feb-19 06:30N 35°27' E 139°39'0 0.0
2018-Feb-19 06:00N 35°27' E 139°39'0 0.0
2018-Feb-19 05:30N 35°27' E 139°39'0 0.0
2018-Feb-19 05:00N 35°27' E 139°39'0 0.0
2018-Feb-19 04:30N 35°27' E 139°39'0 0.0
2018-Feb-19 04:00N 35°27' E 139°39'0 0.0
2018-Feb-19 03:30N 35°27' E 139°39'0 0.0
2018-Feb-19 03:00N 35°27' E 139°39'0 0.0
2018-Feb-19 02:30N 35°27' E 139°39'0 0.0
2018-Feb-19 02:01N 35°27' E 139°39'2 3.1
2018-Feb-19 01:30N 35°27' E 139°41'3 6.0
2018-Feb-19 01:00N 35°24' E 139°40'1 2.1
2018-Feb-19 00:30N 35°25' E 139°39'0 0.1
2018-Feb-19 00:00N 35°25' E 139°39'1 1.6
2018-Feb-18 23:30N 35°24' E 139°40'2 3.4
2018-Feb-18 23:00N 35°23' E 139°41'0 0.7
2018-Feb-18 22:30N 35°23' E 139°41'4 7.8
2018-Feb-18 22:00N 35°27' E 139°41'1 2.4
2018-Feb-18 21:30N 35°27' E 139°39'0 0.0
2018-Feb-18 21:00N 35°27' E 139°39'0 0.0
2018-Feb-18 20:30N 35°27' E 139°39'0 0.0
2018-Feb-18 20:00N 35°27' E 139°39'0 0.0
2018-Feb-18 19:30N 35°27' E 139°39'0 0.0
2018-Feb-18 19:00N 35°27' E 139°39'0 0.0
2018-Feb-18 18:30N 35°27' E 139°39'0 0.0
2018-Feb-18 18:00N 35°27' E 139°39'0 0.0
2018-Feb-18 17:30N 35°27' E 139°39'0 0.0
2018-Feb-18 17:00N 35°27' E 139°39'0 0.0
2018-Feb-18 16:30N 35°27' E 139°39'0 0.0
2018-Feb-18 16:00N 35°27' E 139°39'0 0.0
2018-Feb-18 15:30N 35°27' E 139°39'0 0.0
2018-Feb-18 15:00N 35°27' E 139°39'0 0.0
2018-Feb-18 14:30N 35°27' E 139°39'0 0.0
2018-Feb-18 14:00N 35°27' E 139°39'0 0.0
2018-Feb-18 13:30N 35°27' E 139°39'0 0.0
2018-Feb-18 13:00N 35°27' E 139°39'0 0.0
2018-Feb-18 12:30N 35°27' E 139°39'0 0.0
2018-Feb-18 12:00N 35°27' E 139°39'0 0.0
2018-Feb-18 11:30N 35°27' E 139°39'0 0.0
2018-Feb-18 11:00N 35°27' E 139°39'0 0.0
2018-Feb-18 10:30N 35°27' E 139°39'0 0.0
2018-Feb-18 10:00N 35°27' E 139°39'0 0.0
2018-Feb-18 09:30N 35°27' E 139°39'0 0.0
2018-Feb-18 09:00N 35°27' E 139°39'0 0.0
2018-Feb-18 08:30N 35°27' E 139°39'0 0.0
2018-Feb-18 08:00N 35°27' E 139°39'0 0.0
2018-Feb-18 07:30N 35°27' E 139°39'0 0.0
2018-Feb-18 07:00N 35°27' E 139°39'0 0.0
2018-Feb-18 06:30N 35°27' E 139°39'0 0.0
2018-Feb-18 06:00N 35°27' E 139°39'0 0.0
2018-Feb-18 05:30N 35°27' E 139°39'0 0.0
2018-Feb-18 05:00N 35°27' E 139°39'0 0.0
2018-Feb-18 04:30N 35°27' E 139°39'0 0.0
2018-Feb-18 04:00N 35°27' E 139°39'0 0.0
2018-Feb-18 03:30N 35°27' E 139°39'0 0.0
2018-Feb-18 03:00N 35°27' E 139°39'0 0.0
2018-Feb-18 02:30N 35°27' E 139°39'0 0.0
2018-Feb-18 02:00N 35°27' E 139°39'0 0.0
2018-Feb-18 01:30N 35°27' E 139°39'0 0.0
2018-Feb-18 01:00N 35°27' E 139°39'0 0.0
2018-Feb-18 00:30N 35°27' E 139°39'0 0.0
2018-Feb-18 00:00N 35°27' E 139°39'0 0.0
2018-Feb-17 23:30N 35°27' E 139°39'0 0.0
2018-Feb-17 23:00N 35°27' E 139°39'0 0.0
2018-Feb-17 22:30N 35°27' E 139°39'0 0.0
2018-Feb-17 22:00N 35°27' E 139°39'0 0.0
2018-Feb-17 21:30N 35°27' E 139°39'0 0.0
2018-Feb-17 21:00N 35°27' E 139°39'0 0.0
2018-Feb-17 20:30N 35°27' E 139°39'0 0.0
2018-Feb-17 20:00N 35°27' E 139°39'0 0.0
2018-Feb-17 19:30N 35°27' E 139°39'0 0.0
2018-Feb-17 19:00N 35°27' E 139°39'0 0.0
2018-Feb-17 18:30N 35°27' E 139°39'0 0.0
2018-Feb-17 18:00N 35°27' E 139°39'0 0.0
2018-Feb-17 17:30N 35°27' E 139°39'0 0.0
2018-Feb-17 17:00N 35°27' E 139°39'0 0.0
2018-Feb-17 16:30N 35°27' E 139°39'0 0.0
2018-Feb-17 16:00N 35°27' E 139°39'0 0.0
2018-Feb-17 15:30N 35°27' E 139°39'0 0.0
2018-Feb-17 15:00N 35°27' E 139°39'0 0.0
2018-Feb-17 14:30N 35°27' E 139°39'0 0.0
2018-Feb-17 14:00N 35°27' E 139°39'0 0.0
2018-Feb-17 13:31N 35°27' E 139°39'0 0.0
2018-Feb-17 13:00N 35°27' E 139°39'0 0.0
2018-Feb-17 12:30N 35°27' E 139°39'0 0.0
2018-Feb-17 12:00N 35°27' E 139°39'0 0.0
2018-Feb-17 11:30N 35°27' E 139°39'0 0.0
2018-Feb-17 11:00N 35°27' E 139°39'0 0.0
2018-Feb-17 10:30N 35°27' E 139°39'0 0.0
2018-Feb-17 10:00N 35°27' E 139°39'0 0.0
2018-Feb-17 09:31N 35°27' E 139°39'0 0.0
2018-Feb-17 09:00N 35°27' E 139°39'0 0.0
2018-Feb-17 08:30N 35°27' E 139°39'0 0.0
2018-Feb-17 08:00N 35°27' E 139°39'0 0.0
2018-Feb-17 07:30N 35°27' E 139°39'1 1.1
2018-Feb-17 07:00N 35°27' E 139°39'1 1.1
2018-Feb-17 06:30N 35°27' E 139°39'0 0.0
2018-Feb-17 06:01N 35°27' E 139°39'1 2.5
2018-Feb-17 05:30N 35°27' E 139°41'4 8.9
2018-Feb-17 05:00N 35°28' E 139°46'1 1.7
2018-Feb-17 04:30N 35°29' E 139°47'0 0.2
2018-Feb-17 04:00N 35°29' E 139°47'2 4.5
2018-Feb-17 03:30N 35°27' E 139°47'1 1.0
2018-Feb-17 03:00N 35°27' E 139°46'2 4.2
2018-Feb-17 02:30N 35°27' E 139°43'3 6.9
2018-Feb-17 02:00N 35°27' E 139°39'0 0.0
2018-Feb-17 01:30N 35°27' E 139°39'0 0.0
2018-Feb-17 01:00N 35°27' E 139°39'0 0.0
2018-Feb-17 00:30N 35°27' E 139°39'0 0.0
2018-Feb-17 00:00N 35°27' E 139°39'0 0.6
2018-Feb-16 23:30N 35°27' E 139°39'4 7.3
2018-Feb-16 23:00N 35°29' E 139°43'0 0.9
2018-Feb-16 22:30N 35°29' E 139°42'1 1.9
2018-Feb-16 22:00N 35°28' E 139°42'0 0.9
2018-Feb-16 21:30N 35°28' E 139°42'0 0.1
2018-Feb-16 21:01N 35°28' E 139°42'2 4.7
2018-Feb-16 20:31N 35°27' E 139°39'0 0.0
2018-Feb-16 20:00N 35°27' E 139°39'0 0.0
2018-Feb-16 19:30N 35°27' E 139°39'0 0.0
2018-Feb-16 19:00N 35°27' E 139°39'0 0.0
2018-Feb-16 18:30N 35°27' E 139°39'0 0.0
2018-Feb-16 18:00N 35°27' E 139°39'0 0.0
2018-Feb-16 17:30N 35°27' E 139°39'0 0.0
2018-Feb-16 17:00N 35°27' E 139°39'0 0.0
2018-Feb-16 16:30N 35°27' E 139°39'0 0.0
2018-Feb-16 16:00N 35°27' E 139°39'0 0.0
2018-Feb-16 15:30N 35°27' E 139°39'0 0.0
2018-Feb-16 15:00N 35°27' E 139°39'0 0.0
2018-Feb-16 14:30N 35°27' E 139°39'0 0.0
2018-Feb-16 14:00N 35°27' E 139°39'0 0.0
2018-Feb-16 13:30N 35°27' E 139°39'0 0.0
2018-Feb-16 13:00N 35°27' E 139°39'0 0.0
2018-Feb-16 12:30N 35°27' E 139°39'0 0.0
2018-Feb-16 12:00N 35°27' E 139°39'0 0.0
2018-Feb-16 11:30N 35°27' E 139°39'0 0.0
2018-Feb-16 11:00N 35°27' E 139°39'0 0.0
2018-Feb-16 10:30N 35°27' E 139°39'3 6.1
2018-Feb-16 10:00N 35°27' E 139°43'2 4.1
2018-Feb-16 09:30N 35°29' E 139°44'0 0.0
2018-Feb-16 09:00N 35°29' E 139°44'1 1.1
2018-Feb-16 08:30N 35°28' E 139°45'2 3.3
2018-Feb-16 08:00N 35°27' E 139°45'3 7.0
2018-Feb-16 07:30N 35°27' E 139°41'1 3.0
2018-Feb-16 07:00N 35°27' E 139°39'0 0.0
2018-Feb-16 06:31N 35°27' E 139°39'0 0.0
2018-Feb-16 06:00N 35°27' E 139°39'0 0.0
2018-Feb-16 05:30N 35°27' E 139°39'0 0.0
2018-Feb-16 05:00N 35°27' E 139°39'0 0.0
2018-Feb-16 04:30N 35°27' E 139°39'0 0.0
2018-Feb-16 04:00N 35°27' E 139°39'0 0.0
2018-Feb-16 03:30N 35°27' E 139°39'0 0.0
2018-Feb-16 03:00N 35°27' E 139°39'0 0.0
2018-Feb-16 02:30N 35°27' E 139°39'0 0.0
2018-Feb-16 02:00N 35°27' E 139°39'0 0.0
2018-Feb-16 01:30N 35°27' E 139°39'0 0.0
2018-Feb-16 01:00N 35°27' E 139°39'0 0.0
2018-Feb-16 00:30N 35°27' E 139°39'0 0.0
2018-Feb-16 00:00N 35°27' E 139°39'0 0.0
2018-Feb-15 23:30N 35°27' E 139°39'0 0.0
2018-Feb-15 23:00N 35°27' E 139°39'0 0.0
2018-Feb-15 22:30N 35°27' E 139°39'0 0.0
2018-Feb-15 22:00N 35°27' E 139°39'0 0.0
2018-Feb-15 21:30N 35°27' E 139°39'0 0.0
2018-Feb-15 21:00N 35°27' E 139°39'0 0.0
2018-Feb-15 20:30N 35°27' E 139°39'0 0.0
2018-Feb-15 20:00N 35°27' E 139°39'0 0.0
2018-Feb-15 19:30N 35°27' E 139°39'0 0.0
2018-Feb-15 19:00N 35°27' E 139°39'0 0.0
2018-Feb-15 18:30N 35°27' E 139°39'0 0.0
2018-Feb-15 18:00N 35°27' E 139°39'0 0.0
2018-Feb-15 17:30N 35°27' E 139°39'0 0.0
2018-Feb-15 17:00N 35°27' E 139°39'0 0.0
2018-Feb-15 16:30N 35°27' E 139°39'0 0.0
2018-Feb-15 16:00N 35°27' E 139°39'0 0.0
2018-Feb-15 15:30N 35°27' E 139°39'0 0.0
2018-Feb-15 15:00N 35°27' E 139°39'0 0.0
2018-Feb-15 14:30N 35°27' E 139°39'0 0.0
2018-Feb-15 14:00N 35°27' E 139°39'0 0.0
2018-Feb-15 13:30N 35°27' E 139°39'0 0.0
2018-Feb-15 13:00N 35°27' E 139°39'0 0.0
2018-Feb-15 12:30N 35°27' E 139°39'0 0.0
2018-Feb-15 12:00N 35°27' E 139°39'0 0.0
2018-Feb-15 11:30N 35°27' E 139°39'0 0.0
2018-Feb-15 11:00N 35°27' E 139°39'0 0.0
2018-Feb-15 10:30N 35°27' E 139°39'0 0.0
2018-Feb-15 10:01N 35°27' E 139°39'0 0.0
2018-Feb-15 09:30N 35°27' E 139°39'0 0.0
2018-Feb-15 09:00N 35°27' E 139°39'0 0.0
2018-Feb-15 08:30N 35°27' E 139°39'0 0.0
2018-Feb-15 08:00N 35°27' E 139°39'0 0.0
2018-Feb-15 07:31N 35°27' E 139°39'0 0.0
2018-Feb-15 07:00N 35°27' E 139°39'0 0.0
2018-Feb-15 06:30N 35°27' E 139°39'0 0.0
2018-Feb-15 06:00N 35°27' E 139°39'0 0.0
2018-Feb-15 05:30N 35°27' E 139°39'0 0.0
2018-Feb-15 05:00N 35°27' E 139°39'0 0.0
2018-Feb-15 04:30N 35°27' E 139°39'0 0.0
2018-Feb-15 04:00N 35°27' E 139°39'0 0.0
2018-Feb-15 03:30N 35°27' E 139°39'0 0.0
2018-Feb-15 03:00N 35°27' E 139°39'0 0.0
2018-Feb-15 02:30N 35°27' E 139°39'0 0.0
2018-Feb-15 02:00N 35°27' E 139°39'0 0.0
2018-Feb-15 01:30N 35°27' E 139°39'0 0.0
2018-Feb-15 01:00N 35°27' E 139°39'0 0.0
2018-Feb-15 00:30N 35°27' E 139°39'0 0.0
2018-Feb-15 00:00N 35°27' E 139°39'0 0.0
2018-Feb-14 23:30N 35°27' E 139°39'4 7.8
2018-Feb-14 23:00N 35°29' E 139°43'0 0.5
2018-Feb-14 22:30N 35°29' E 139°43'1 2.3
2018-Feb-14 22:01N 35°28' E 139°42'1 2.4
2018-Feb-14 21:30N 35°27' E 139°43'0 0.9
2018-Feb-14 21:00N 35°27' E 139°44'0 0.5
2018-Feb-14 20:30N 35°27' E 139°43'3 5.1
2018-Feb-14 20:01N 35°27' E 139°40'1 1.9
2018-Feb-14 19:30N 35°27' E 139°39'0 0.0
2018-Feb-14 19:01N 35°27' E 139°39'0 0.0
2018-Feb-14 18:31N 35°27' E 139°39'0 0.0
2018-Feb-14 18:00N 35°27' E 139°39'0 0.0
2018-Feb-14 17:30N 35°27' E 139°39'0 0.0
2018-Feb-14 17:00N 35°27' E 139°39'0 0.0
2018-Feb-14 16:30N 35°27' E 139°39'0 0.0
2018-Feb-14 16:00N 35°27' E 139°39'0 0.0
2018-Feb-14 15:30N 35°27' E 139°39'0 0.0
2018-Feb-14 15:00N 35°27' E 139°39'0 0.0
2018-Feb-14 14:30N 35°27' E 139°39'0 0.0
2018-Feb-14 14:00N 35°27' E 139°39'0 0.0
2018-Feb-14 13:30N 35°27' E 139°39'1 2.9
2018-Feb-14 13:00N 35°27' E 139°41'3 5.7
2018-Feb-14 12:30N 35°24' E 139°41'0 0.5
2018-Feb-14 12:00N 35°24' E 139°41'2 5.0
2018-Feb-14 11:30N 35°25' E 139°43'1 2.3
2018-Feb-14 11:01N 35°26' E 139°44'0 0.5
2018-Feb-14 10:30N 35°26' E 139°44'1 2.3
2018-Feb-14 10:00N 35°25' E 139°43'2 3.4
2018-Feb-14 09:30N 35°24' E 139°41'1 1.4
2018-Feb-14 09:00N 35°23' E 139°41'4 7.4
2018-Feb-14 08:31N 35°27' E 139°44'1 2.3
2018-Feb-14 08:01N 35°27' E 139°42'0 0.0
2018-Feb-14 07:30N 35°27' E 139°42'0 0.0
2018-Feb-14 07:00N 35°27' E 139°42'0 0.1
2018-Feb-14 06:30N 35°27' E 139°42'0 0.0
2018-Feb-14 06:01N 35°27' E 139°42'0 0.0
2018-Feb-14 05:30N 35°27' E 139°42'0 0.0
2018-Feb-14 05:00N 35°27' E 139°42'0 0.0
2018-Feb-14 04:30N 35°27' E 139°42'0 0.0
2018-Feb-14 04:00N 35°27' E 139°42'0 0.0
2018-Feb-14 03:30N 35°27' E 139°42'3 5.0
2018-Feb-14 03:00N 35°28' E 139°45'2 3.5
2018-Feb-14 02:30N 35°29' E 139°47'0 0.0
2018-Feb-14 02:00N 35°29' E 139°47'0 0.2
2018-Feb-14 01:30N 35°29' E 139°47'1 1.7
2018-Feb-14 01:01N 35°28' E 139°47'2 4.6
2018-Feb-14 00:31N 35°26' E 139°46'2 3.9
2018-Feb-14 00:00N 35°26' E 139°44'4 7.6
2018-Feb-13 23:30N 35°27' E 139°40'0 0.3
2018-Feb-13 23:00N 35°27' E 139°39'0 0.0
2018-Feb-13 22:30N 35°27' E 139°39'1 2.9
2018-Feb-13 22:00N 35°27' E 139°41'1 3.0
2018-Feb-13 21:30N 35°26' E 139°42'1 1.3
2018-Feb-13 21:00N 35°25' E 139°42'3 5.9
2018-Feb-13 20:30N 35°27' E 139°39'0 0.0
2018-Feb-13 20:00N 35°27' E 139°39'0 0.0
2018-Feb-13 19:30N 35°27' E 139°39'0 0.0
2018-Feb-13 19:00N 35°27' E 139°39'0 0.0
2018-Feb-13 18:30N 35°27' E 139°39'0 0.0
2018-Feb-13 18:00N 35°27' E 139°39'0 0.0
2018-Feb-13 17:30N 35°27' E 139°39'0 0.0
2018-Feb-13 17:00N 35°27' E 139°39'0 0.0
2018-Feb-13 16:30N 35°27' E 139°39'0 0.0
2018-Feb-13 16:00N 35°27' E 139°39'0 0.0
2018-Feb-13 15:30N 35°27' E 139°39'0 0.0
2018-Feb-13 15:00N 35°27' E 139°39'0 0.0
2018-Feb-13 14:30N 35°27' E 139°39'0 0.0
2018-Feb-13 14:00N 35°27' E 139°39'0 0.0
2018-Feb-13 13:30N 35°27' E 139°39'0 0.0
2018-Feb-13 13:00N 35°27' E 139°39'0 0.0
2018-Feb-13 12:30N 35°27' E 139°39'0 0.0
2018-Feb-13 12:00N 35°27' E 139°39'0 0.0
2018-Feb-13 11:30N 35°27' E 139°39'0 0.0
2018-Feb-13 11:00N 35°27' E 139°39'0 0.0
2018-Feb-13 10:30N 35°27' E 139°39'0 0.0
2018-Feb-13 10:00N 35°27' E 139°39'0 0.0
2018-Feb-13 09:30N 35°27' E 139°39'0 0.0
2018-Feb-13 09:00N 35°27' E 139°39'0 0.0
2018-Feb-13 08:30N 35°27' E 139°39'0 0.0
2018-Feb-13 08:00N 35°27' E 139°39'0 0.0
2018-Feb-13 07:30N 35°27' E 139°39'0 0.0
2018-Feb-13 07:00N 35°27' E 139°39'0 0.0
2018-Feb-13 06:30N 35°27' E 139°39'0 0.0
2018-Feb-13 06:00N 35°27' E 139°39'0 0.0
2018-Feb-13 05:30N 35°27' E 139°39'0 0.0
2018-Feb-13 05:00N 35°27' E 139°39'0 0.0
2018-Feb-13 04:30N 35°27' E 139°39'0 0.0
2018-Feb-13 04:00N 35°27' E 139°39'0 0.0
2018-Feb-13 03:30N 35°27' E 139°39'0 0.0
2018-Feb-13 03:00N 35°27' E 139°39'0 0.0
2018-Feb-13 02:30N 35°27' E 139°39'0 0.0
2018-Feb-13 02:00N 35°27' E 139°39'0 0.0
2018-Feb-13 01:30N 35°27' E 139°39'1 2.9
2018-Feb-13 01:00N 35°27' E 139°41'1 1.6
2018-Feb-13 00:30N 35°27' E 139°42'1 3.0
2018-Feb-13 00:00N 35°26' E 139°43'3 6.2
2018-Feb-12 23:30N 35°27' E 139°39'0 0.0
2018-Feb-12 23:00N 35°27' E 139°39'0 0.0
2018-Feb-12 22:30N 35°27' E 139°39'0 0.0
2018-Feb-12 22:00N 35°27' E 139°39'0 0.0
2018-Feb-12 21:30N 35°27' E 139°39'0 0.0
2018-Feb-12 21:00N 35°27' E 139°39'0 0.0
2018-Feb-12 20:30N 35°27' E 139°39'0 0.0
2018-Feb-12 20:01N 35°27' E 139°39'0 0.0
2018-Feb-12 19:30N 35°27' E 139°39'0 0.0
2018-Feb-12 19:00N 35°27' E 139°39'0 0.0
2018-Feb-12 18:30N 35°27' E 139°39'0 0.0
2018-Feb-12 18:00N 35°27' E 139°39'0 0.0
2018-Feb-12 17:30N 35°27' E 139°39'0 0.0
2018-Feb-12 17:00N 35°27' E 139°39'0 0.0
2018-Feb-12 16:30N 35°27' E 139°39'0 0.0
2018-Feb-12 16:00N 35°27' E 139°39'0 0.0
2018-Feb-12 15:30N 35°27' E 139°39'0 0.0
2018-Feb-12 15:00N 35°27' E 139°39'0 0.0
2018-Feb-12 14:30N 35°27' E 139°39'0 0.0
2018-Feb-12 14:00N 35°27' E 139°39'0 0.0
2018-Feb-12 13:30N 35°27' E 139°39'0 0.0
2018-Feb-12 13:00N 35°27' E 139°39'0 0.0
2018-Feb-12 12:30N 35°27' E 139°39'0 0.0
2018-Feb-12 12:00N 35°27' E 139°39'0 0.0
2018-Feb-12 11:30N 35°27' E 139°39'0 0.0
2018-Feb-12 11:00N 35°27' E 139°39'0 0.0
2018-Feb-12 10:30N 35°27' E 139°39'0 0.0
2018-Feb-12 10:00N 35°27' E 139°39'0 0.0
2018-Feb-12 09:31N 35°27' E 139°39'0 0.0
2018-Feb-12 09:00N 35°27' E 139°39'0 0.0
2018-Feb-12 08:30N 35°27' E 139°39'0 0.0
2018-Feb-12 08:00N 35°27' E 139°39'0 0.0
2018-Feb-12 07:30N 35°27' E 139°39'0 0.0
2018-Feb-12 07:00N 35°27' E 139°39'0 0.0
2018-Feb-12 06:30N 35°27' E 139°39'0 0.0
2018-Feb-12 06:00N 35°27' E 139°39'0 0.0
2018-Feb-12 05:30N 35°27' E 139°39'0 0.0
2018-Feb-12 05:00N 35°27' E 139°39'0 0.0
2018-Feb-12 04:30N 35°27' E 139°39'0 0.0
2018-Feb-12 04:00N 35°27' E 139°39'0 0.0
2018-Feb-12 03:30N 35°27' E 139°39'0 0.0
2018-Feb-12 03:00N 35°27' E 139°39'0 0.0
2018-Feb-12 02:30N 35°27' E 139°39'0 0.0
2018-Feb-12 02:00N 35°27' E 139°39'0 0.0
2018-Feb-12 01:30N 35°27' E 139°39'0 0.0
2018-Feb-12 01:00N 35°27' E 139°39'0 0.0
2018-Feb-12 00:31N 35°27' E 139°39'0 0.0
2018-Feb-12 00:00N 35°27' E 139°39'2 3.1
2018-Feb-11 23:30N 35°27' E 139°41'0 0.3
2018-Feb-11 23:00N 35°27' E 139°41'2 4.5
2018-Feb-11 22:30N 35°26' E 139°44'2 3.3
2018-Feb-11 22:00N 35°27' E 139°42'0 0.0
2018-Feb-11 21:30N 35°27' E 139°42'1 1.5
2018-Feb-11 21:00N 35°28' E 139°42'0 0.1
2018-Feb-11 20:30N 35°28' E 139°42'  

Dump ship's entire track history